createdAt,value
2017-10-20T00:00:49.055Z,98.04
2017-10-20T00:03:16.624Z,98.12
2017-10-20T00:05:44.180Z,98.44
2017-10-20T00:08:11.748Z,98.17
2017-10-20T00:10:39.290Z,97.96
2017-10-20T00:13:06.823Z,97.95
2017-10-20T00:15:34.360Z,98.16
2017-10-20T00:18:01.893Z,98.14
2017-10-20T00:20:29.544Z,97.85
2017-10-20T00:22:57.929Z,97.78
2017-10-20T00:25:25.780Z,97.92
2017-10-20T00:27:53.360Z,97.68
2017-10-20T00:30:20.901Z,97.77
2017-10-20T00:32:48.476Z,97.50
2017-10-20T00:35:16.136Z,97.42
2017-10-20T00:37:43.669Z,98.04
2017-10-20T00:40:11.211Z,97.77
2017-10-20T00:42:38.752Z,98.24
2017-10-20T00:45:06.284Z,97.89
2017-10-20T00:47:33.827Z,97.87
2017-10-20T00:50:01.371Z,97.78
2017-10-20T00:52:28.958Z,97.70
2017-10-20T00:54:56.522Z,97.44
2017-10-20T00:57:24.060Z,97.57
2017-10-20T00:59:51.599Z,97.74
2017-10-20T01:02:19.137Z,97.75
2017-10-20T01:04:46.773Z,97.90
2017-10-20T01:07:14.306Z,97.73
2017-10-20T01:09:41.845Z,97.79
2017-10-20T01:12:09.389Z,97.51
2017-10-20T01:14:36.933Z,97.48
2017-10-20T01:17:04.472Z,97.57
2017-10-20T01:19:32.375Z,97.70
2017-10-20T01:21:59.926Z,97.61
2017-10-20T01:24:27.455Z,97.46
2017-10-20T01:26:55.026Z,97.58
2017-10-20T01:29:22.734Z,97.55
2017-10-20T01:31:50.267Z,97.44
2017-10-20T01:34:17.893Z,97.31
2017-10-20T01:36:45.476Z,97.55
2017-10-20T01:39:13.020Z,97.22
2017-10-20T01:41:41.335Z,97.00
2017-10-20T01:44:10.056Z,96.97
2017-10-20T01:46:37.585Z,97.21
2017-10-20T01:49:05.198Z,97.06
2017-10-20T01:51:32.745Z,97.40
2017-10-20T01:54:00.303Z,97.45
2017-10-20T01:56:27.836Z,97.69
2017-10-20T01:58:55.368Z,97.54
2017-10-20T02:01:22.948Z,97.79
2017-10-20T02:03:50.488Z,97.58
2017-10-20T02:06:18.109Z,97.45
2017-10-20T02:08:45.644Z,97.50
2017-10-20T02:11:13.239Z,97.60
2017-10-20T02:13:41.461Z,97.47
2017-10-20T02:16:09.088Z,97.60
2017-10-20T02:18:37.464Z,97.64
2017-10-20T02:21:05.813Z,97.67
2017-10-20T02:23:34.112Z,97.93
2017-10-20T02:26:02.453Z,97.92
2017-10-20T02:28:30.022Z,97.88
2017-10-20T02:30:57.565Z,97.91
2017-10-20T02:33:25.186Z,97.69
2017-10-20T02:35:52.730Z,97.68
2017-10-20T02:38:20.309Z,97.60
2017-10-20T02:40:47.864Z,97.63
2017-10-20T02:43:15.389Z,97.55
2017-10-20T02:45:42.924Z,97.63
2017-10-20T02:48:10.541Z,97.70
2017-10-20T02:50:38.069Z,97.65
2017-10-20T02:53:05.601Z,97.45
2017-10-20T02:55:33.131Z,97.81
2017-10-20T02:58:00.693Z,97.80
2017-10-20T03:00:28.246Z,97.63
2017-10-20T03:02:55.808Z,97.63
2017-10-20T03:05:23.363Z,97.77
2017-10-20T03:07:50.896Z,97.59
2017-10-20T03:10:20.544Z,97.52
2017-10-20T03:12:48.092Z,97.79
2017-10-20T03:15:15.620Z,97.96
2017-10-20T03:17:43.158Z,98.14
2017-10-20T03:20:10.704Z,98.06
2017-10-20T03:22:38.238Z,97.97
2017-10-20T03:25:05.788Z,98.05
2017-10-20T03:27:33.323Z,98.00
2017-10-20T03:30:01.014Z,97.90
2017-10-20T03:32:28.547Z,97.98
2017-10-20T03:34:56.081Z,97.66
2017-10-20T03:37:23.611Z,97.81
2017-10-20T03:39:51.151Z,97.74
2017-10-20T03:42:18.693Z,98.03
2017-10-20T03:44:46.233Z,98.32
2017-10-20T03:47:13.773Z,97.91
2017-10-20T03:49:41.307Z,97.93
2017-10-20T03:52:08.852Z,97.79
2017-10-20T03:54:36.915Z,97.87
2017-10-20T03:57:04.481Z,97.87
2017-10-20T03:59:32.016Z,97.48
2017-10-20T04:02:00.519Z,97.41
2017-10-20T04:04:28.059Z,97.39
2017-10-20T04:06:55.648Z,97.80
2017-10-20T04:09:23.183Z,97.67
2017-10-20T04:11:50.711Z,98.17
2017-10-20T04:14:18.251Z,98.13
2017-10-20T04:16:45.790Z,98.20
2017-10-20T04:19:13.327Z,97.71
2017-10-20T04:21:40.912Z,97.94
2017-10-20T04:24:08.467Z,97.86
2017-10-20T04:26:36.007Z,97.70
2017-10-20T04:29:03.538Z,97.60
2017-10-20T04:31:32.089Z,97.82
2017-10-20T04:33:59.631Z,97.63
2017-10-20T04:36:27.168Z,97.56
2017-10-20T04:38:54.701Z,97.41
2017-10-20T04:41:22.425Z,97.63
2017-10-20T04:43:49.991Z,97.29
2017-10-20T04:46:18.263Z,97.93
2017-10-20T04:48:45.796Z,97.97
2017-10-20T04:51:13.347Z,98.06
2017-10-20T04:53:40.880Z,97.97
2017-10-20T04:56:08.411Z,98.18
2017-10-20T04:58:35.953Z,97.74
2017-10-20T05:01:03.598Z,97.79
2017-10-20T05:03:31.200Z,97.47
2017-10-20T05:05:58.760Z,97.74
2017-10-20T05:08:26.300Z,98.04
2017-10-20T05:10:53.833Z,97.97
2017-10-20T05:13:21.409Z,98.12
2017-10-20T05:15:48.941Z,98.12
2017-10-20T05:18:16.472Z,97.97
2017-10-20T05:20:44.001Z,97.81
2017-10-20T05:23:12.796Z,97.77
2017-10-20T05:25:40.324Z,97.79
2017-10-20T05:28:07.858Z,97.61
2017-10-20T05:30:35.397Z,97.30
2017-10-20T05:33:02.932Z,97.29
2017-10-20T05:35:30.472Z,97.68
2017-10-20T05:37:58.012Z,97.53
2017-10-20T05:40:25.624Z,97.33
2017-10-20T05:42:53.167Z,97.50
2017-10-20T05:45:20.695Z,97.34
2017-10-20T05:47:48.300Z,97.35
2017-10-20T05:50:19.227Z,97.26
2017-10-20T05:52:46.756Z,96.92
2017-10-20T05:55:14.289Z,97.05
2017-10-20T05:57:41.824Z,97.32
2017-10-20T06:00:09.383Z,97.23
2017-10-20T06:02:37.732Z,96.81
2017-10-20T06:05:05.266Z,96.86
2017-10-20T06:07:32.809Z,96.57
2017-10-20T06:10:00.352Z,96.09
2017-10-20T06:12:27.883Z,96.36
2017-10-20T06:14:55.457Z,96.51
2017-10-20T06:17:35.001Z,97.03
2017-10-20T06:20:02.540Z,96.52
2017-10-20T06:22:30.116Z,96.42
2017-10-20T06:24:57.656Z,96.55
2017-10-20T06:27:25.189Z,97.04
2017-10-20T06:29:53.624Z,96.83
2017-10-20T06:32:21.287Z,97.44
2017-10-20T06:34:48.913Z,97.36
2017-10-20T06:37:16.444Z,96.83
2017-10-20T06:39:44.788Z,96.62
2017-10-20T06:42:12.313Z,96.89
2017-10-20T06:44:40.700Z,96.97
2017-10-20T06:47:08.233Z,97.00
2017-10-20T06:49:35.772Z,97.18
2017-10-20T06:52:03.337Z,97.05
2017-10-20T06:54:30.871Z,96.88
2017-10-20T06:56:58.400Z,97.17
2017-10-20T06:59:25.938Z,97.77
2017-10-20T07:01:53.668Z,97.60
2017-10-20T07:04:21.309Z,97.21
2017-10-20T07:06:48.872Z,96.95
2017-10-20T07:09:16.409Z,96.78
2017-10-20T07:11:44.196Z,96.43
2017-10-20T07:14:11.794Z,96.49
2017-10-20T07:16:39.371Z,97.16
2017-10-20T07:22:10.898Z,96.44
2017-10-20T07:24:38.556Z,96.61
2017-10-20T07:27:06.420Z,96.70
2017-10-20T07:29:35.813Z,96.67
2017-10-20T07:32:03.433Z,96.81
2017-10-20T07:34:31.037Z,96.58
2017-10-20T07:36:58.573Z,96.63
2017-10-20T07:39:26.264Z,96.63
2017-10-20T07:41:53.799Z,96.33
2017-10-20T07:44:21.337Z,96.54
2017-10-20T07:46:50.170Z,96.33
2017-10-20T07:49:18.712Z,95.88
2017-10-20T07:51:46.288Z,95.74
2017-10-20T07:54:14.477Z,95.21
2017-10-20T07:56:42.023Z,95.37
2017-10-20T07:59:09.607Z,95.34
2017-10-20T08:01:37.147Z,94.70
2017-10-20T08:04:04.741Z,94.01
2017-10-20T08:06:32.286Z,94.55
2017-10-20T08:08:59.824Z,93.42
2017-10-20T08:11:28.140Z,94.06
2017-10-20T08:13:55.812Z,93.70
2017-10-20T08:16:24.418Z,92.95
2017-10-20T08:18:52.051Z,93.22
2017-10-20T08:21:19.593Z,92.95
2017-10-20T08:23:47.175Z,93.01
2017-10-20T08:26:14.710Z,91.96
2017-10-20T08:28:42.260Z,92.06
2017-10-20T08:31:09.796Z,91.49
2017-10-20T08:33:37.380Z,91.78
2017-10-20T08:36:04.972Z,90.92
2017-10-20T08:38:33.421Z,90.56
2017-10-20T08:41:02.054Z,88.89
2017-10-20T08:43:29.588Z,90.76
2017-10-20T08:45:57.157Z,90.78
2017-10-20T08:48:24.709Z,90.04
2017-10-20T08:50:52.285Z,89.06
2017-10-20T08:53:19.872Z,89.15
2017-10-20T08:55:47.409Z,89.03
2017-10-20T08:58:16.008Z,88.46
2017-10-20T09:00:43.547Z,88.08
2017-10-20T09:03:11.087Z,87.66
2017-10-20T09:05:38.633Z,87.42
2017-10-20T09:08:06.233Z,87.43
2017-10-20T09:10:34.698Z,87.26
2017-10-20T09:13:02.237Z,87.76
2017-10-20T09:15:29.800Z,85.64
2017-10-20T09:17:57.338Z,86.14
2017-10-20T09:20:24.887Z,84.37
2017-10-20T09:22:52.429Z,84.66
2017-10-20T09:25:20.081Z,84.94
2017-10-20T09:27:47.623Z,84.34
2017-10-20T09:30:19.334Z,85.10
2017-10-20T09:32:46.957Z,81.39
2017-10-20T09:35:14.593Z,82.40
2017-10-20T09:37:42.188Z,82.87
2017-10-20T09:40:10.593Z,81.87
2017-10-20T09:42:38.224Z,79.83
2017-10-20T09:45:06.955Z,78.52
2017-10-20T09:47:34.545Z,81.83
2017-10-20T09:50:02.137Z,78.89
2017-10-20T09:52:29.670Z,78.87
2017-10-20T09:54:57.970Z,79.26
2017-10-20T09:57:26.330Z,76.36
2017-10-20T09:59:53.870Z,77.06
2017-10-20T10:02:21.461Z,75.19
2017-10-20T10:04:49.016Z,76.55
2017-10-20T10:07:16.553Z,74.97
2017-10-20T10:09:44.140Z,75.29
2017-10-20T10:12:11.682Z,74.57
2017-10-20T10:14:39.273Z,73.39
2017-10-20T10:17:06.822Z,73.44
2017-10-20T10:19:34.388Z,71.68
2017-10-20T10:22:01.923Z,73.49
2017-10-20T10:24:30.338Z,72.96
2017-10-20T10:26:57.909Z,74.27
2017-10-20T10:29:26.064Z,73.32
2017-10-20T10:31:54.905Z,72.37
2017-10-20T10:34:22.518Z,73.12
2017-10-20T10:36:50.104Z,73.31
2017-10-20T10:39:17.649Z,70.49
2017-10-20T10:41:46.083Z,71.00
2017-10-20T10:44:13.680Z,71.77
2017-10-20T10:46:42.145Z,68.95
2017-10-20T10:49:09.719Z,70.78
2017-10-20T10:51:38.060Z,71.22
2017-10-20T10:54:05.635Z,71.00
2017-10-20T10:56:33.901Z,71.82
2017-10-20T10:59:01.440Z,69.51
2017-10-20T11:01:29.728Z,68.37
2017-10-20T11:03:57.280Z,69.66
2017-10-20T11:06:36.695Z,71.26
2017-10-20T11:09:16.461Z,68.71
2017-10-20T11:11:55.965Z,70.86
2017-10-20T11:14:23.503Z,68.14
2017-10-20T11:16:51.937Z,69.25
2017-10-20T11:19:19.468Z,68.67
2017-10-20T11:21:48.875Z,70.58
2017-10-20T11:24:16.560Z,70.03
2017-10-20T11:26:44.096Z,69.70
2017-10-20T11:29:11.656Z,72.29
2017-10-20T11:31:40.041Z,71.83
2017-10-20T11:34:07.609Z,71.50
2017-10-20T11:36:35.979Z,71.70
2017-10-20T11:39:03.518Z,72.82
2017-10-20T11:41:31.931Z,71.12
2017-10-20T11:43:59.576Z,71.72
2017-10-20T11:46:27.900Z,71.69
2017-10-20T11:48:55.517Z,72.34
2017-10-20T11:51:23.758Z,72.04
2017-10-20T11:53:51.306Z,71.21
2017-10-20T11:56:19.377Z,72.10
2017-10-20T11:58:46.921Z,72.09
2017-10-20T12:01:14.463Z,71.23
2017-10-20T12:03:42.007Z,70.96
2017-10-20T12:06:09.568Z,70.94
2017-10-20T12:08:37.129Z,72.95
2017-10-20T12:11:04.664Z,73.27
2017-10-20T12:13:32.197Z,72.52
2017-10-20T12:15:59.740Z,74.77
2017-10-20T12:18:27.281Z,74.79
2017-10-20T12:20:54.823Z,75.38
2017-10-20T12:23:22.374Z,75.20
2017-10-20T12:25:49.964Z,73.40
2017-10-20T12:28:17.843Z,74.19
2017-10-20T12:30:46.203Z,74.50
2017-10-20T12:33:13.758Z,75.04
2017-10-20T12:35:41.299Z,75.50
2017-10-20T12:38:08.880Z,75.89
2017-10-20T12:40:37.257Z,75.83
2017-10-20T12:43:05.780Z,75.98
2017-10-20T12:45:33.333Z,76.30
2017-10-20T12:48:00.868Z,77.58
2017-10-20T12:50:28.402Z,78.21
2017-10-20T12:52:55.938Z,79.14
2017-10-20T12:55:23.536Z,78.18
2017-10-20T12:57:51.713Z,79.63
2017-10-20T13:00:20.735Z,79.59
2017-10-20T13:02:48.276Z,79.84
2017-10-20T13:05:15.820Z,80.36
2017-10-20T13:07:43.366Z,80.63
2017-10-20T13:10:10.902Z,80.61
2017-10-20T13:12:38.512Z,80.13
2017-10-20T13:15:06.051Z,80.89
2017-10-20T13:17:33.665Z,80.64
2017-10-20T13:20:01.300Z,81.56
2017-10-20T13:22:28.864Z,81.89
2017-10-20T13:24:56.440Z,81.78
2017-10-20T13:27:24.078Z,81.48
2017-10-20T13:29:51.604Z,80.24
2017-10-20T13:32:20.269Z,81.71
2017-10-20T13:34:48.648Z,81.56
2017-10-20T13:37:17.289Z,82.43
2017-10-20T13:39:44.853Z,81.14
2017-10-20T13:42:12.408Z,82.50
2017-10-20T13:44:39.989Z,83.21
2017-10-20T13:47:08.423Z,83.06
2017-10-20T13:49:36.967Z,83.77
2017-10-20T13:52:05.517Z,83.59
2017-10-20T13:54:33.828Z,82.55
2017-10-20T13:57:02.183Z,82.71
2017-10-20T13:59:30.535Z,81.98
2017-10-20T14:01:58.811Z,82.61
2017-10-20T14:04:27.245Z,82.32
2017-10-20T14:06:55.656Z,82.73
2017-10-20T14:09:24.108Z,83.20
2017-10-20T14:11:52.420Z,82.62
2017-10-20T14:14:19.953Z,83.08
2017-10-20T14:16:48.392Z,83.50
2017-10-20T14:19:15.925Z,83.49
2017-10-20T14:21:44.368Z,83.25
2017-10-20T14:24:11.942Z,83.44
2017-10-20T14:26:40.384Z,83.74
2017-10-20T14:29:08.036Z,83.46
2017-10-20T14:31:36.360Z,83.82
2017-10-20T14:34:03.928Z,81.57
2017-10-20T14:36:31.541Z,83.30
2017-10-20T14:38:59.801Z,83.54
2017-10-20T14:41:28.067Z,84.37
2017-10-20T14:43:55.658Z,84.04
2017-10-20T14:46:24.036Z,82.39
2017-10-20T14:48:51.596Z,83.53
2017-10-20T14:51:20.101Z,83.41
2017-10-20T14:53:47.636Z,84.90
2017-10-20T14:56:16.032Z,84.81
2017-10-20T14:58:43.572Z,85.29
2017-10-20T15:01:11.984Z,87.67
2017-10-20T15:03:40.332Z,87.82
2017-10-20T15:06:08.687Z,86.27
2017-10-20T15:08:42.064Z,87.38
2017-10-20T15:11:09.642Z,87.07
2017-10-20T15:13:38.089Z,88.01
2017-10-20T15:16:05.631Z,88.11
2017-10-20T15:18:33.166Z,88.65
2017-10-20T15:21:02.552Z,88.93
2017-10-20T15:23:30.780Z,88.74
2017-10-20T15:25:58.312Z,89.60
2017-10-20T15:28:25.852Z,90.11
2017-10-20T15:30:53.444Z,89.41
2017-10-20T15:33:20.997Z,89.99
2017-10-20T15:35:49.646Z,90.37
2017-10-20T15:38:18.140Z,90.52
2017-10-20T15:40:45.833Z,90.56
2017-10-20T15:43:13.369Z,91.41
2017-10-20T15:45:40.900Z,91.55
2017-10-20T15:48:08.445Z,91.10
2017-10-20T15:50:36.792Z,91.03
2017-10-20T15:53:04.326Z,91.04
2017-10-20T15:55:32.764Z,91.14
2017-10-20T15:58:00.833Z,91.18
2017-10-20T16:00:29.300Z,91.15
2017-10-20T16:02:56.835Z,90.98
2017-10-20T16:05:24.512Z,91.34
2017-10-20T16:07:52.949Z,91.42
2017-10-20T16:10:20.674Z,91.52
2017-10-20T16:12:48.211Z,91.58
2017-10-20T16:15:15.746Z,91.53
2017-10-20T16:17:43.337Z,91.46
2017-10-20T16:20:10.905Z,91.47
2017-10-20T16:22:38.480Z,91.61
2017-10-20T16:25:06.029Z,91.75
2017-10-20T16:27:33.573Z,91.57
2017-10-20T16:30:01.722Z,91.79
2017-10-20T16:32:29.311Z,90.70
2017-10-20T16:34:56.862Z,91.29
2017-10-20T16:37:26.015Z,92.15
2017-10-20T16:39:54.158Z,91.19
2017-10-20T16:42:22.360Z,91.17
2017-10-20T16:44:49.893Z,91.53
2017-10-20T16:47:17.432Z,91.41
2017-10-20T16:49:44.971Z,91.88
2017-10-20T16:52:12.533Z,92.18
2017-10-20T16:54:40.073Z,92.24
2017-10-20T16:57:07.617Z,92.36
2017-10-20T16:59:35.240Z,92.49
2017-10-20T17:02:03.697Z,92.78
2017-10-20T17:04:32.096Z,92.89
2017-10-20T17:06:59.628Z,93.65
2017-10-20T17:09:27.736Z,94.09
2017-10-20T17:11:55.300Z,93.96
2017-10-20T17:14:22.848Z,93.57
2017-10-20T17:16:50.383Z,93.47
2017-10-20T17:19:17.928Z,93.33
2017-10-20T17:21:45.516Z,93.23
2017-10-20T17:24:13.048Z,93.30
2017-10-20T17:26:40.621Z,93.17
2017-10-20T17:29:08.160Z,93.04
2017-10-20T17:31:35.705Z,92.98
2017-10-20T17:34:03.256Z,93.09
2017-10-20T17:36:30.795Z,93.05
2017-10-20T17:38:58.329Z,93.03
2017-10-20T17:41:25.921Z,93.25
2017-10-20T17:43:56.151Z,93.46
2017-10-20T17:46:23.709Z,93.23
2017-10-20T17:48:53.458Z,93.59
2017-10-20T17:51:20.996Z,93.37
2017-10-20T17:53:49.520Z,93.79
2017-10-20T17:56:19.176Z,93.17
2017-10-20T17:58:47.499Z,92.74
2017-10-20T18:01:15.940Z,93.44
2017-10-20T18:03:46.383Z,93.38
2017-10-20T18:06:13.950Z,92.84
2017-10-20T18:08:41.573Z,93.24
2017-10-20T18:11:09.910Z,93.24
2017-10-20T18:13:37.517Z,92.32
2017-10-20T18:16:05.269Z,92.54
2017-10-20T18:18:32.827Z,92.68
2017-10-20T18:21:00.371Z,93.15
2017-10-20T18:23:27.915Z,93.33
2017-10-20T18:25:55.522Z,93.37
2017-10-20T18:28:23.060Z,93.72
2017-10-20T18:30:51.397Z,93.80
2017-10-20T18:33:18.945Z,93.60
2017-10-20T18:35:46.485Z,93.66
2017-10-20T18:38:15.229Z,93.24
2017-10-20T18:40:42.769Z,92.48
2017-10-20T18:43:10.397Z,91.59
2017-10-20T18:45:37.940Z,91.64
2017-10-20T18:48:06.305Z,91.52
2017-10-20T18:50:34.629Z,92.34
2017-10-20T18:53:02.167Z,93.35
2017-10-20T18:55:29.704Z,93.06
2017-10-20T18:57:57.248Z,92.55
2017-10-20T19:00:24.825Z,92.44
2017-10-20T19:02:53.180Z,92.43
2017-10-20T19:05:20.711Z,93.20
2017-10-20T19:07:48.248Z,93.31
2017-10-20T19:10:16.241Z,92.86
2017-10-20T19:12:44.804Z,93.20
2017-10-20T19:15:12.380Z,93.98
2017-10-20T19:17:39.921Z,94.10
2017-10-20T19:20:07.460Z,94.80
2017-10-20T19:22:35.049Z,95.05
2017-10-20T19:25:02.617Z,94.40
2017-10-20T19:27:30.188Z,94.46
2017-10-20T19:29:57.731Z,93.79
2017-10-20T19:32:25.273Z,93.65
2017-10-20T19:34:52.866Z,93.10
2017-10-20T19:37:20.409Z,92.55
2017-10-20T19:39:47.939Z,92.39
2017-10-20T19:42:16.413Z,93.73
2017-10-20T19:44:44.017Z,93.63
2017-10-20T19:47:11.582Z,94.41
2017-10-20T19:49:51.874Z,94.91
2017-10-20T19:52:20.544Z,94.15
2017-10-20T19:54:48.156Z,93.79
2017-10-20T19:57:15.741Z,93.60
2017-10-20T19:59:44.173Z,93.08
2017-10-20T20:02:12.516Z,93.85
2017-10-20T20:04:40.273Z,94.08
2017-10-20T20:07:08.488Z,94.18
2017-10-20T20:09:37.087Z,94.74
2017-10-20T20:12:05.216Z,94.73
2017-10-20T20:14:33.921Z,94.59
2017-10-20T20:17:01.566Z,94.30
2017-10-20T20:19:30.244Z,94.78
2017-10-20T20:21:58.824Z,95.11
2017-10-20T20:24:27.409Z,95.56
2017-10-20T20:26:55.041Z,95.51
2017-10-20T20:29:23.862Z,95.67
2017-10-20T20:32:07.072Z,95.40
2017-10-20T20:34:34.656Z,95.23
2017-10-20T20:37:03.027Z,95.22
2017-10-20T20:39:30.886Z,93.71
2017-10-20T20:41:58.444Z,93.47
2017-10-20T20:44:25.984Z,92.92
2017-10-20T20:46:54.812Z,92.33
2017-10-20T20:49:24.015Z,92.92
2017-10-20T20:51:52.068Z,92.35
2017-10-20T20:54:19.848Z,92.14
2017-10-20T20:56:47.542Z,92.63
2017-10-20T20:59:15.076Z,92.27
2017-10-20T21:01:42.685Z,92.69
2017-10-20T21:04:10.958Z,91.65
2017-10-20T21:06:38.502Z,91.94
2017-10-20T21:09:06.129Z,90.81
2017-10-20T21:11:33.677Z,90.91
2017-10-20T21:14:02.574Z,90.18
2017-10-20T21:16:30.342Z,90.88
2017-10-20T21:18:58.746Z,90.68
2017-10-20T21:21:26.584Z,91.37
2017-10-20T21:23:55.384Z,91.79
2017-10-20T21:26:24.882Z,92.23
2017-10-20T21:28:52.872Z,92.46
2017-10-20T21:31:21.212Z,92.58
2017-10-20T21:33:48.744Z,92.66
2017-10-20T21:36:16.285Z,92.88
2017-10-20T21:38:45.860Z,93.58
2017-10-20T21:41:13.437Z,93.58
2017-10-20T21:43:42.957Z,93.85
2017-10-20T21:46:11.201Z,93.89
2017-10-20T21:48:42.641Z,94.15
2017-10-20T21:51:14.152Z,94.11
2017-10-20T21:53:45.413Z,94.28
2017-10-20T21:56:17.107Z,94.59
2017-10-20T21:58:45.004Z,94.71
2017-10-20T22:01:16.080Z,94.86
2017-10-20T22:06:19.255Z,94.83
2017-10-20T22:08:47.925Z,94.80
2017-10-20T22:11:15.843Z,94.78
2017-10-20T22:13:43.622Z,94.88
2017-10-20T22:16:11.432Z,94.41
2017-10-20T22:18:39.154Z,94.61
2017-10-20T22:21:09.271Z,94.07
2017-10-20T22:23:37.386Z,93.90
2017-10-20T22:26:05.253Z,94.09
2017-10-20T22:28:33.635Z,93.96
2017-10-20T22:31:01.953Z,93.77
2017-10-20T22:33:29.868Z,93.88
2017-10-20T22:35:57.744Z,94.11
2017-10-20T22:38:25.511Z,94.05
2017-10-20T22:40:53.254Z,93.75
2017-10-20T22:43:21.362Z,93.65
2017-10-20T22:45:49.377Z,93.73
2017-10-20T22:48:17.183Z,93.85
2017-10-20T22:50:45.263Z,93.99
2017-10-20T22:53:13.119Z,93.83
2017-10-20T22:55:40.797Z,93.72
2017-10-20T22:58:08.371Z,93.19
2017-10-20T23:00:36.011Z,93.49
2017-10-20T23:03:07.702Z,93.74
2017-10-20T23:05:36.144Z,93.70
2017-10-20T23:08:03.747Z,93.62
2017-10-20T23:10:31.328Z,93.16
2017-10-20T23:12:58.932Z,93.27
2017-10-20T23:15:27.284Z,93.01
2017-10-20T23:17:54.829Z,92.89
2017-10-20T23:20:22.376Z,93.03
2017-10-20T23:22:50.830Z,93.54
2017-10-20T23:25:18.475Z,93.77
2017-10-20T23:27:46.017Z,94.32
2017-10-20T23:30:13.596Z,94.19
2017-10-20T23:32:41.140Z,94.39
2017-10-20T23:35:09.440Z,94.12
2017-10-20T23:37:38.017Z,94.12
2017-10-20T23:40:06.357Z,94.50
2017-10-20T23:42:34.781Z,94.57
2017-10-20T23:45:02.321Z,94.40
2017-10-20T23:47:30.004Z,94.39
2017-10-20T23:49:58.224Z,94.45
2017-10-20T23:52:25.808Z,94.45
2017-10-20T23:54:54.286Z,94.49
2017-10-20T23:57:21.829Z,94.73
2017-10-20T23:59:50.361Z,94.83
